createdAt,value
2022-10-13T00:00:10.628Z,0.00
2022-10-13T00:01:12.045Z,0.00
2022-10-13T00:02:11.777Z,0.00
2022-10-13T00:03:12.058Z,0.00
2022-10-13T00:04:30.404Z,0.00
2022-10-13T00:05:11.686Z,0.00
2022-10-13T00:06:12.011Z,0.00
2022-10-13T00:07:11.853Z,0.00
2022-10-13T00:08:11.686Z,0.00
2022-10-13T00:09:12.057Z,0.00
2022-10-13T00:10:10.848Z,0.00
2022-10-13T00:11:11.766Z,0.00
2022-10-13T00:12:11.607Z,0.00
2022-10-13T00:13:11.912Z,0.00
2022-10-13T00:14:30.260Z,0.00
2022-10-13T00:15:10.694Z,0.00
2022-10-13T00:16:10.856Z,0.00
2022-10-13T00:17:11.619Z,0.00
2022-10-13T00:18:11.922Z,0.00
2022-10-13T00:19:15.066Z,0.00
2022-10-13T00:20:11.602Z,0.00
2022-10-13T00:21:11.964Z,0.00
2022-10-13T00:22:10.855Z,0.00
2022-10-13T00:23:11.559Z,0.00
2022-10-13T00:24:30.388Z,0.00
2022-10-13T00:25:11.615Z,0.00
2022-10-13T00:26:11.496Z,0.00
2022-10-13T00:27:11.781Z,0.00
2022-10-13T00:28:10.897Z,0.00
2022-10-13T00:29:11.497Z,0.00
2022-10-13T00:30:11.887Z,0.00
2022-10-13T00:31:11.637Z,0.00
2022-10-13T00:32:10.653Z,0.00
2022-10-13T00:33:11.365Z,0.00
2022-10-13T00:34:30.087Z,0.00
2022-10-13T00:35:10.866Z,0.00
2022-10-13T00:36:11.696Z,0.00
2022-10-13T00:37:11.520Z,0.00
2022-10-13T00:38:10.847Z,0.00
2022-10-13T00:39:10.865Z,0.00
2022-10-13T00:40:11.490Z,0.00
2022-10-13T00:41:11.331Z,0.00
2022-10-13T00:42:11.164Z,0.00
2022-10-13T00:43:11.038Z,0.00
2022-10-13T00:44:29.870Z,0.00
2022-10-13T00:45:11.766Z,0.00
2022-10-13T00:46:11.571Z,0.00
2022-10-13T00:47:11.365Z,0.00
2022-10-13T00:48:11.170Z,0.00
2022-10-13T00:49:11.472Z,0.00
2022-10-13T00:50:10.368Z,0.00
2022-10-13T00:51:11.204Z,0.00
2022-10-13T00:52:11.544Z,0.00
2022-10-13T00:53:11.398Z,0.00
2022-10-13T00:54:29.764Z,0.00
2022-10-13T00:55:11.015Z,0.00
2022-10-13T00:56:10.365Z,0.00
2022-10-13T00:57:11.200Z,0.00
2022-10-13T00:58:11.056Z,0.00
2022-10-13T00:59:10.535Z,0.00
2022-10-13T01:00:10.705Z,0.00
2022-10-13T01:01:10.457Z,0.00
2022-10-13T01:02:11.417Z,0.00
2022-10-13T01:03:10.700Z,0.00
2022-10-13T01:04:30.035Z,0.00
2022-10-13T01:05:11.230Z,0.00
2022-10-13T01:06:11.061Z,0.00
2022-10-13T01:07:10.384Z,0.00
2022-10-13T01:08:11.268Z,0.00
2022-10-13T01:09:10.609Z,0.00
2022-10-13T01:10:10.916Z,0.00
2022-10-13T01:11:10.431Z,0.00
2022-10-13T01:12:10.594Z,0.00
2022-10-13T01:13:10.379Z,0.00
2022-10-13T01:14:29.726Z,0.00
2022-10-13T01:15:10.357Z,0.00
2022-10-13T01:16:11.224Z,0.00
2022-10-13T01:17:11.040Z,0.00
2022-10-13T01:18:10.341Z,0.00
2022-10-13T01:19:10.386Z,0.00
2022-10-13T01:20:10.990Z,0.00
2022-10-13T01:21:11.292Z,0.00
2022-10-13T01:22:11.153Z,0.00
2022-10-13T01:23:10.973Z,0.00
2022-10-13T01:24:29.805Z,0.00
2022-10-13T01:25:11.031Z,0.00
2022-10-13T01:26:10.869Z,0.00
2022-10-13T01:27:11.226Z,0.00
2022-10-13T01:28:10.192Z,0.00
2022-10-13T01:29:10.860Z,0.00
2022-10-13T01:30:10.419Z,0.00
2022-10-13T01:31:11.050Z,0.00
2022-10-13T01:32:10.866Z,0.00
2022-10-13T01:33:10.735Z,0.00
2022-10-13T01:34:29.652Z,0.00
2022-10-13T01:35:09.923Z,0.00
2022-10-13T01:36:09.923Z,0.00
2022-10-13T01:37:10.999Z,0.00
2022-10-13T01:38:10.778Z,0.00
2022-10-13T01:39:11.141Z,0.00
2022-10-13T01:40:10.975Z,0.00
2022-10-13T01:41:10.985Z,0.00
2022-10-13T01:42:11.151Z,0.00
2022-10-13T01:43:10.922Z,0.00
2022-10-13T01:44:31.276Z,0.00
2022-10-13T01:45:11.047Z,0.00
2022-10-13T01:46:10.399Z,0.00
2022-10-13T01:47:10.733Z,0.00
2022-10-13T01:48:09.918Z,0.00
2022-10-13T01:49:10.937Z,0.00
2022-10-13T01:50:10.724Z,0.00
2022-10-13T01:51:09.719Z,0.00
2022-10-13T01:52:10.852Z,0.00
2022-10-13T01:53:10.712Z,0.00
2022-10-13T01:54:29.526Z,0.00
2022-10-13T01:55:10.819Z,0.00
2022-10-13T01:56:10.641Z,0.00
2022-10-13T01:57:10.022Z,0.00
2022-10-13T01:58:10.836Z,0.00
2022-10-13T01:59:10.719Z,0.00
2022-10-13T02:00:09.931Z,0.00
2022-10-13T02:01:10.942Z,0.00
2022-10-13T02:02:10.718Z,0.00
2022-10-13T02:03:10.046Z,0.00
2022-10-13T02:04:29.373Z,0.00
2022-10-13T02:05:10.179Z,0.00
2022-10-13T02:06:09.959Z,0.00
2022-10-13T02:07:10.785Z,0.00
2022-10-13T02:08:10.124Z,0.00
2022-10-13T02:09:10.437Z,0.00
2022-10-13T02:10:10.778Z,0.00
2022-10-13T02:11:10.107Z,0.00
2022-10-13T02:12:09.910Z,0.00
2022-10-13T02:13:09.949Z,0.00
2022-10-13T02:14:29.313Z,0.00
2022-10-13T02:15:09.773Z,0.00
2022-10-13T02:16:09.006Z,0.00
2022-10-13T02:17:09.830Z,0.00
2022-10-13T02:18:09.423Z,0.00
2022-10-13T02:19:10.058Z,0.00
2022-10-13T02:20:09.009Z,0.00
2022-10-13T02:21:09.141Z,0.00
2022-10-13T02:22:10.662Z,0.00
2022-10-13T02:23:10.054Z,0.00
2022-10-13T02:24:28.898Z,0.00
2022-10-13T02:25:10.167Z,0.00
2022-10-13T02:26:09.706Z,0.00
2022-10-13T02:27:10.412Z,0.00
2022-10-13T02:28:09.749Z,0.00
2022-10-13T02:29:09.109Z,0.00
2022-10-13T02:30:08.890Z,0.00
2022-10-13T02:31:08.694Z,0.00
2022-10-13T02:32:09.011Z,0.00
2022-10-13T02:33:08.811Z,0.00
2022-10-13T02:34:29.119Z,0.00
2022-10-13T02:35:09.854Z,0.00
2022-10-13T02:36:08.696Z,0.00
2022-10-13T02:37:14.328Z,0.00
2022-10-13T02:38:08.605Z,0.00
2022-10-13T02:39:08.888Z,0.00
2022-10-13T02:40:08.718Z,0.00
2022-10-13T02:41:08.965Z,0.00
2022-10-13T02:42:15.043Z,0.00
2022-10-13T02:43:08.870Z,0.00
2022-10-13T02:44:28.619Z,0.00
2022-10-13T02:45:08.871Z,0.00
2022-10-13T02:46:08.605Z,0.00
2022-10-13T02:47:15.146Z,0.00
2022-10-13T02:48:08.469Z,0.00
2022-10-13T02:49:08.731Z,0.00
2022-10-13T02:50:08.508Z,0.00
2022-10-13T02:51:08.803Z,0.00
2022-10-13T02:52:14.790Z,0.00
2022-10-13T02:53:08.594Z,0.00
2022-10-13T02:54:28.867Z,0.00
2022-10-13T02:55:08.615Z,0.00
2022-10-13T02:56:08.386Z,0.00
2022-10-13T02:57:08.622Z,0.00
2022-10-13T02:58:08.385Z,0.00
2022-10-13T02:59:08.665Z,0.00
2022-10-13T03:00:08.438Z,0.00
2022-10-13T03:01:08.733Z,0.00
2022-10-13T03:02:08.464Z,0.00
2022-10-13T03:03:08.804Z,0.00
2022-10-13T03:04:28.536Z,0.00
2022-10-13T03:05:08.292Z,0.00
2022-10-13T03:06:08.581Z,0.00
2022-10-13T03:07:14.604Z,0.00
2022-10-13T03:08:08.420Z,0.00
2022-10-13T03:09:08.673Z,0.00
2022-10-13T03:10:08.420Z,0.00
2022-10-13T03:11:08.645Z,0.00
2022-10-13T03:12:13.706Z,0.00
2022-10-13T03:13:08.461Z,0.00
2022-10-13T03:14:28.221Z,0.00
2022-10-13T03:15:08.453Z,0.00
2022-10-13T03:16:08.204Z,0.00
2022-10-13T03:17:14.764Z,0.00
2022-10-13T03:18:08.565Z,0.00
2022-10-13T03:19:08.324Z,0.00
2022-10-13T03:20:08.594Z,0.00
2022-10-13T03:21:08.315Z,0.00
2022-10-13T03:22:14.833Z,0.00
2022-10-13T03:23:08.116Z,0.00
2022-10-13T03:24:28.420Z,0.00
2022-10-13T03:25:08.153Z,0.00
2022-10-13T03:26:08.437Z,0.00
2022-10-13T03:27:14.523Z,0.00
2022-10-13T03:28:08.346Z,0.00
2022-10-13T03:29:08.093Z,0.00
2022-10-13T03:30:08.372Z,0.00
2022-10-13T03:31:08.147Z,0.00
2022-10-13T03:32:14.684Z,0.00
2022-10-13T03:33:08.441Z,0.00
2022-10-13T03:34:28.255Z,0.00
2022-10-13T03:35:07.984Z,0.00
2022-10-13T03:36:08.311Z,0.00
2022-10-13T03:37:14.275Z,0.00
2022-10-13T03:38:08.098Z,0.00
2022-10-13T03:39:08.370Z,0.00
2022-10-13T03:40:08.108Z,0.00
2022-10-13T03:41:07.927Z,0.00
2022-10-13T03:42:08.187Z,0.00
2022-10-13T03:43:07.946Z,0.00
2022-10-13T03:44:28.291Z,0.00
2022-10-13T03:45:07.951Z,0.00
2022-10-13T03:46:08.254Z,0.00
2022-10-13T03:47:08.054Z,0.00
2022-10-13T03:48:08.334Z,0.00
2022-10-13T03:49:08.069Z,0.00
2022-10-13T03:50:08.326Z,0.00
2022-10-13T03:51:08.093Z,0.00
2022-10-13T03:52:07.847Z,0.00
2022-10-13T03:53:08.097Z,0.00
2022-10-13T03:54:27.912Z,0.00
2022-10-13T03:55:08.136Z,0.00
2022-10-13T03:56:07.938Z,0.00
2022-10-13T03:57:14.456Z,0.00
2022-10-13T03:58:07.776Z,0.00
2022-10-13T03:59:08.028Z,0.00
2022-10-13T04:00:07.789Z,0.00
2022-10-13T04:01:08.037Z,0.00
2022-10-13T04:02:13.164Z,0.00
2022-10-13T04:03:07.913Z,0.00
2022-10-13T04:04:28.189Z,0.00
2022-10-13T04:05:07.956Z,0.00
2022-10-13T04:06:07.704Z,0.00
2022-10-13T04:07:14.220Z,0.00
2022-10-13T04:08:08.019Z,0.00
2022-10-13T04:09:07.785Z,0.00
2022-10-13T04:10:11.358Z,0.00
2022-10-13T04:11:07.804Z,0.00
2022-10-13T04:12:18.384Z,0.00
2022-10-13T04:13:08.682Z,0.00
2022-10-13T04:14:27.966Z,0.00
2022-10-13T04:15:07.744Z,0.00
2022-10-13T04:16:08.017Z,0.00
2022-10-13T04:17:13.128Z,0.00
2022-10-13T04:18:07.895Z,0.00
2022-10-13T04:19:07.664Z,0.00
2022-10-13T04:20:07.924Z,0.00
2022-10-13T04:21:07.733Z,0.00
2022-10-13T04:22:07.485Z,0.00
2022-10-13T04:23:07.732Z,0.00
2022-10-13T04:24:27.476Z,0.00
2022-10-13T04:25:07.723Z,0.00
2022-10-13T04:26:07.493Z,0.00
2022-10-13T04:27:14.007Z,0.00
2022-10-13T04:28:07.805Z,0.00
2022-10-13T04:29:07.570Z,0.00
2022-10-13T04:30:07.839Z,0.00
2022-10-13T04:31:07.593Z,0.00
2022-10-13T04:32:13.174Z,0.00
2022-10-13T04:33:07.407Z,0.00
2022-10-13T04:34:27.652Z,0.00
2022-10-13T04:35:08.223Z,0.00
2022-10-13T04:36:07.638Z,0.00
2022-10-13T04:37:07.397Z,0.00
2022-10-13T04:38:07.652Z,0.00
2022-10-13T04:39:07.428Z,0.00
2022-10-13T04:40:08.602Z,0.00
2022-10-13T04:41:07.406Z,0.00
2022-10-13T04:42:07.684Z,0.00
2022-10-13T04:43:07.666Z,0.00
2022-10-13T04:44:27.490Z,0.00
2022-10-13T04:45:07.227Z,0.00
2022-10-13T04:46:07.502Z,0.00
2022-10-13T04:47:07.271Z,0.00
2022-10-13T04:48:07.523Z,0.00
2022-10-13T04:49:07.283Z,0.00
2022-10-13T04:50:07.570Z,0.00
2022-10-13T04:51:07.384Z,0.00
2022-10-13T04:52:07.625Z,0.00
2022-10-13T04:53:07.430Z,0.00
2022-10-13T04:54:27.717Z,0.00
2022-10-13T04:55:07.465Z,0.00
2022-10-13T04:56:07.285Z,0.00
2022-10-13T04:57:07.526Z,0.00
2022-10-13T04:58:07.272Z,0.00
2022-10-13T04:59:07.540Z,0.00
2022-10-13T05:00:07.295Z,0.00
2022-10-13T05:01:07.649Z,0.00
2022-10-13T05:02:07.453Z,0.00
2022-10-13T05:03:07.101Z,0.00
2022-10-13T05:04:27.378Z,0.00
2022-10-13T05:05:07.130Z,0.00
2022-10-13T05:06:07.399Z,0.00
2022-10-13T05:07:17.421Z,0.00
2022-10-13T05:08:08.400Z,0.00
2022-10-13T05:09:07.179Z,0.00
2022-10-13T05:10:07.508Z,0.00
2022-10-13T05:11:07.267Z,0.00
2022-10-13T05:12:07.014Z,0.00
2022-10-13T05:13:07.255Z,0.00
2022-10-13T05:14:27.059Z,0.00
2022-10-13T05:15:07.323Z,0.00
2022-10-13T05:16:07.090Z,0.00
2022-10-13T05:17:07.315Z,0.00
2022-10-13T05:18:07.068Z,0.00
2022-10-13T05:19:07.338Z,0.00
2022-10-13T05:20:07.182Z,0.00
2022-10-13T05:21:07.389Z,0.00
2022-10-13T05:22:07.187Z,0.00
2022-10-13T05:23:06.921Z,0.00
2022-10-13T05:24:27.227Z,0.00
2022-10-13T05:25:06.978Z,0.00
2022-10-13T05:26:07.226Z,0.00
2022-10-13T05:27:07.012Z,0.00
2022-10-13T05:28:07.312Z,1.00
2022-10-13T05:29:07.098Z,1.00
2022-10-13T05:30:06.917Z,1.00
2022-10-13T05:31:07.217Z,1.00
2022-10-13T05:32:06.929Z,1.00
2022-10-13T05:33:07.177Z,1.00
2022-10-13T05:34:27.009Z,0.00
2022-10-13T05:35:06.858Z,2.00
2022-10-13T05:36:07.194Z,2.00
2022-10-13T05:37:06.881Z,2.00
2022-10-13T05:38:10.069Z,2.00
2022-10-13T05:39:06.874Z,0.00
2022-10-13T05:40:07.113Z,0.00
2022-10-13T05:41:06.882Z,4.00
2022-10-13T05:42:06.635Z,2.00
2022-10-13T05:43:06.896Z,6.00
2022-10-13T05:44:28.130Z,5.00
2022-10-13T05:45:06.153Z,5.00
2022-10-13T05:46:06.898Z,9.00
2022-10-13T05:47:07.761Z,3.00
2022-10-13T05:48:06.904Z,9.00
2022-10-13T05:49:06.647Z,9.00
2022-10-13T05:50:07.856Z,9.00
2022-10-13T05:51:06.663Z,3.00
2022-10-13T05:52:06.976Z,9.00
2022-10-13T05:53:06.714Z,14.00
2022-10-13T05:54:26.977Z,28.00
2022-10-13T05:55:07.594Z,22.00
2022-10-13T05:56:06.995Z,23.00
2022-10-13T05:57:06.761Z,27.00
2022-10-13T05:58:06.558Z,41.00
2022-10-13T05:59:06.766Z,44.00
2022-10-13T06:00:06.545Z,52.00
2022-10-13T06:01:07.568Z,59.00
2022-10-13T06:02:06.648Z,61.00
2022-10-13T06:03:06.903Z,57.00
2022-10-13T06:04:26.657Z,58.00
2022-10-13T06:05:06.430Z,69.00
2022-10-13T06:06:06.681Z,69.00
2022-10-13T06:07:06.413Z,76.00
2022-10-13T06:08:06.691Z,86.00
2022-10-13T06:09:06.413Z,91.00
2022-10-13T06:10:06.672Z,92.00
2022-10-13T06:11:06.447Z,99.00
2022-10-13T06:12:06.695Z,101.00
2022-10-13T06:13:06.443Z,107.00
2022-10-13T06:14:26.708Z,115.00
2022-10-13T06:15:06.457Z,114.00
2022-10-13T06:16:06.702Z,103.00
2022-10-13T06:17:06.464Z,84.00
2022-10-13T06:18:06.708Z,88.00
2022-10-13T06:19:06.478Z,96.00
2022-10-13T06:20:06.707Z,114.00
2022-10-13T06:21:06.467Z,127.00
2022-10-13T06:22:06.713Z,118.00
2022-10-13T06:23:06.471Z,85.00
2022-10-13T06:24:26.774Z,71.00
2022-10-13T06:25:06.520Z,79.00
2022-10-13T06:26:06.277Z,109.00
2022-10-13T06:27:06.615Z,142.00
2022-10-13T06:28:06.273Z,171.00
2022-10-13T06:29:08.080Z,214.00
2022-10-13T06:30:07.806Z,234.00
2022-10-13T06:31:07.315Z,254.00
2022-10-13T06:32:06.622Z,284.00
2022-10-13T06:33:07.728Z,323.00
2022-10-13T06:34:26.549Z,355.00
2022-10-13T06:35:07.788Z,341.00
2022-10-13T06:36:06.424Z,358.00
2022-10-13T06:37:06.667Z,384.00
2022-10-13T06:38:07.074Z,412.00
2022-10-13T06:39:07.589Z,437.00
2022-10-13T06:40:07.361Z,452.00
2022-10-13T06:41:07.735Z,473.00
2022-10-13T06:42:06.696Z,501.00
2022-10-13T06:43:07.838Z,521.00
2022-10-13T06:44:26.152Z,574.00
2022-10-13T06:45:07.867Z,589.00
2022-10-13T06:46:06.709Z,623.00
2022-10-13T06:47:07.549Z,647.00
2022-10-13T06:48:07.837Z,673.00
2022-10-13T06:49:07.634Z,700.00
2022-10-13T06:50:07.091Z,701.00
2022-10-13T06:51:07.791Z,704.00
2022-10-13T06:52:06.766Z,708.00
2022-10-13T06:53:07.406Z,730.00
2022-10-13T06:54:26.239Z,693.00
2022-10-13T06:55:07.509Z,676.00
2022-10-13T06:56:06.590Z,630.00
2022-10-13T06:57:06.795Z,573.00
2022-10-13T06:58:07.416Z,506.00
2022-10-13T06:59:07.759Z,458.00
2022-10-13T07:00:07.550Z,434.00
2022-10-13T07:01:07.394Z,406.00
2022-10-13T07:02:06.605Z,391.00
2022-10-13T07:03:07.475Z,368.00
2022-10-13T07:04:26.347Z,351.00
2022-10-13T07:05:06.352Z,348.00
2022-10-13T07:06:07.612Z,385.00
2022-10-13T07:07:06.588Z,438.00
2022-10-13T07:08:06.603Z,462.00
2022-10-13T07:09:07.583Z,466.00
2022-10-13T07:10:07.397Z,451.00
2022-10-13T07:11:11.646Z,442.00
2022-10-13T07:12:07.647Z,387.00
2022-10-13T07:13:06.586Z,359.00
2022-10-13T07:14:26.188Z,336.00
2022-10-13T07:15:07.414Z,331.00
2022-10-13T07:16:07.232Z,313.00
2022-10-13T07:17:06.662Z,312.00
2022-10-13T07:18:07.328Z,341.00
2022-10-13T07:19:06.653Z,401.00
2022-10-13T07:20:07.642Z,476.00
2022-10-13T07:21:07.280Z,536.00
2022-10-13T07:22:06.688Z,584.00
2022-10-13T07:23:06.952Z,640.00
2022-10-13T07:24:25.751Z,743.00
2022-10-13T07:25:07.501Z,792.00
2022-10-13T07:26:06.815Z,852.00
2022-10-13T07:27:07.923Z,874.00
2022-10-13T07:28:07.465Z,881.00
2022-10-13T07:29:07.267Z,830.00
2022-10-13T07:30:06.529Z,682.00
2022-10-13T07:31:07.347Z,599.00
2022-10-13T07:32:06.681Z,722.00
2022-10-13T07:33:07.494Z,983.00
2022-10-13T07:34:25.818Z,1316.00
2022-10-13T07:35:07.062Z,1325.00
2022-10-13T07:36:06.026Z,1263.00
2022-10-13T07:37:05.774Z,1281.00
2022-10-13T07:38:06.986Z,1318.00
2022-10-13T07:39:05.788Z,1305.00
2022-10-13T07:40:05.542Z,1336.00
2022-10-13T07:41:05.790Z,1454.00
2022-10-13T07:42:05.570Z,1796.00
2022-10-13T07:43:05.799Z,2032.00
2022-10-13T07:44:27.060Z,2128.00
2022-10-13T07:45:05.857Z,2136.00
2022-10-13T07:46:05.616Z,2140.00
2022-10-13T07:47:04.852Z,2077.00
2022-10-13T07:48:04.872Z,2050.00
2022-10-13T07:49:05.605Z,2002.00
2022-10-13T07:50:05.347Z,1955.00
2022-10-13T07:51:05.599Z,1952.00
2022-10-13T07:52:05.351Z,1866.00
2022-10-13T07:53:05.648Z,1755.00
2022-10-13T07:54:27.595Z,1608.00
2022-10-13T07:55:04.759Z,1393.00
2022-10-13T07:56:05.507Z,1198.00
2022-10-13T07:57:05.254Z,1072.00
2022-10-13T07:58:05.495Z,986.00
2022-10-13T07:59:05.770Z,991.00
2022-10-13T08:00:05.503Z,1049.00
2022-10-13T08:01:05.244Z,1129.00
2022-10-13T08:02:05.489Z,1190.00
2022-10-13T08:03:05.240Z,1206.00
2022-10-13T08:04:27.051Z,1192.00
2022-10-13T08:05:05.324Z,1177.00
2022-10-13T08:06:05.560Z,1117.00
2022-10-13T08:07:05.803Z,1046.00
2022-10-13T08:08:05.691Z,1064.00
2022-10-13T08:09:06.841Z,1243.00
2022-10-13T08:10:06.623Z,1537.00
2022-10-13T08:11:05.498Z,1808.00
2022-10-13T08:12:05.731Z,1903.00
2022-10-13T08:13:06.196Z,1985.00
2022-10-13T08:14:25.372Z,2124.00
2022-10-13T08:15:06.983Z,2224.00
2022-10-13T08:16:05.326Z,2421.00
2022-10-13T08:17:05.707Z,2642.00
2022-10-13T08:18:05.351Z,2835.00
2022-10-13T08:19:06.531Z,2962.00
2022-10-13T08:20:06.849Z,3088.00
2022-10-13T08:22:09.589Z,3402.00
2022-10-13T08:23:05.406Z,3809.00
2022-10-13T08:24:25.102Z,4626.00
2022-10-13T08:25:06.778Z,5492.00
2022-10-13T08:26:06.557Z,5259.00
2022-10-13T08:27:05.832Z,3350.00
2022-10-13T08:28:04.642Z,3150.00
2022-10-13T08:29:22.853Z,3453.00
2022-10-13T08:30:06.946Z,3683.00
2022-10-13T08:31:04.511Z,5256.00
2022-10-13T08:32:04.396Z,5827.00
2022-10-13T08:33:05.830Z,6786.00
2022-10-13T08:34:24.458Z,5638.00
2022-10-13T08:35:04.474Z,4233.00
2022-10-13T08:36:04.351Z,4712.00
2022-10-13T08:37:05.297Z,2680.00
2022-10-13T08:38:04.339Z,2200.00
2022-10-13T08:39:04.373Z,1932.00
2022-10-13T08:40:04.650Z,1723.00
2022-10-13T08:41:06.555Z,1607.00
2022-10-13T08:42:05.668Z,1493.00
2022-10-13T08:43:04.352Z,1363.00
2022-10-13T08:45:10.779Z,1233.00
2022-10-13T08:45:35.817Z,1176.00
2022-10-13T08:46:07.526Z,1100.00
2022-10-13T08:47:04.942Z,1041.00
2022-10-13T08:48:06.555Z,1033.00
2022-10-13T08:49:05.074Z,1022.00
2022-10-13T08:50:06.066Z,1011.00
2022-10-13T08:51:05.586Z,1047.00
2022-10-13T08:52:05.728Z,1033.00
2022-10-13T08:53:06.398Z,989.00
2022-10-13T08:54:24.729Z,939.00
2022-10-13T08:55:05.086Z,945.00
2022-10-13T08:56:06.176Z,979.00
2022-10-13T08:57:05.044Z,1050.00
2022-10-13T08:58:06.220Z,1082.00
2022-10-13T08:59:05.991Z,1078.00
2022-10-13T09:00:05.747Z,1009.00
2022-10-13T09:01:06.520Z,942.00
2022-10-13T09:02:05.619Z,936.00
2022-10-13T09:03:04.669Z,984.00
2022-10-13T09:04:24.879Z,983.00
2022-10-13T09:05:04.718Z,963.00
2022-10-13T09:06:05.856Z,940.00
2022-10-13T09:07:05.830Z,909.00
2022-10-13T09:08:05.656Z,893.00
2022-10-13T09:09:06.188Z,911.00
2022-10-13T09:10:06.430Z,1012.00
2022-10-13T09:11:04.779Z,1104.00
2022-10-13T09:12:04.535Z,1070.00
2022-10-13T09:13:05.464Z,1061.00
2022-10-13T09:14:25.056Z,1061.00
2022-10-13T09:15:06.225Z,1085.00
2022-10-13T09:16:05.470Z,1126.00
2022-10-13T09:17:05.699Z,1192.00
2022-10-13T09:18:05.993Z,1305.00
2022-10-13T09:19:04.816Z,1457.00
2022-10-13T09:20:05.171Z,1622.00
2022-10-13T09:21:06.266Z,1754.00
2022-10-13T09:22:05.657Z,1827.00
2022-10-13T09:23:04.385Z,1830.00
2022-10-13T09:24:24.644Z,1847.00
2022-10-13T09:25:04.411Z,1898.00
2022-10-13T09:26:04.705Z,1930.00
2022-10-13T09:27:05.693Z,1911.00
2022-10-13T09:28:04.936Z,1880.00
2022-10-13T09:29:04.503Z,1884.00
2022-10-13T09:30:06.148Z,1920.00
2022-10-13T09:31:04.520Z,2048.00
2022-10-13T09:32:05.199Z,2161.00
2022-10-13T09:33:04.571Z,2231.00
2022-10-13T09:34:24.772Z,2344.00
2022-10-13T09:35:05.967Z,2416.00
2022-10-13T09:36:05.791Z,2555.00
2022-10-13T09:37:05.768Z,2663.00
2022-10-13T09:38:05.268Z,2795.00
2022-10-13T09:39:04.959Z,2902.00
2022-10-13T09:40:06.009Z,3001.00
2022-10-13T09:41:05.859Z,3116.00
2022-10-13T09:42:05.792Z,3159.00
2022-10-13T09:43:04.548Z,3108.00
2022-10-13T09:44:26.997Z,3027.00
2022-10-13T09:45:05.513Z,2886.00
2022-10-13T09:46:05.356Z,2678.00
2022-10-13T09:47:05.641Z,2485.00
2022-10-13T09:48:05.982Z,2365.00
2022-10-13T09:49:05.763Z,2290.00
2022-10-13T09:50:07.498Z,2291.00
2022-10-13T09:51:05.851Z,2366.00
2022-10-13T09:52:05.147Z,2498.00
2022-10-13T09:53:05.984Z,2712.00
2022-10-13T09:54:24.310Z,3184.00
2022-10-13T09:55:05.228Z,3369.00
2022-10-13T09:56:05.844Z,3593.00
2022-10-13T09:57:05.630Z,3686.00
2022-10-13T09:58:05.930Z,3610.00
2022-10-13T09:59:04.341Z,3338.00
2022-10-13T10:00:05.543Z,3273.00
2022-10-13T10:01:04.699Z,2942.00
2022-10-13T10:02:05.670Z,2603.00
2022-10-13T10:03:05.487Z,2346.00
2022-10-13T10:04:24.398Z,2097.00
2022-10-13T10:05:05.516Z,1976.00
2022-10-13T10:06:04.480Z,1837.00
2022-10-13T10:07:04.713Z,1671.00
2022-10-13T10:08:05.405Z,1465.00
2022-10-13T10:09:05.023Z,1314.00
2022-10-13T10:10:05.016Z,1232.00
2022-10-13T10:11:05.297Z,1152.00
2022-10-13T10:12:05.621Z,1072.00
2022-10-13T10:13:03.981Z,953.00
2022-10-13T10:14:24.233Z,738.00
2022-10-13T10:15:04.947Z,684.00
2022-10-13T10:16:05.224Z,651.00
2022-10-13T10:17:05.509Z,675.00
2022-10-13T10:18:04.439Z,766.00
2022-10-13T10:19:04.213Z,843.00
2022-10-13T10:20:05.478Z,881.00
2022-10-13T10:21:04.485Z,849.00
2022-10-13T10:22:05.545Z,775.00
2022-10-13T10:23:05.316Z,769.00
2022-10-13T10:24:24.135Z,862.00
2022-10-13T10:25:03.913Z,900.00
2022-10-13T10:26:05.634Z,975.00
2022-10-13T10:27:05.011Z,1015.00
2022-10-13T10:28:05.258Z,1109.00
2022-10-13T10:29:05.551Z,1236.00
2022-10-13T10:30:03.943Z,1366.00
2022-10-13T10:31:05.114Z,1448.00
2022-10-13T10:32:03.980Z,1438.00
2022-10-13T10:33:05.225Z,1259.00
2022-10-13T10:34:24.049Z,894.00
2022-10-13T10:35:05.317Z,737.00
2022-10-13T10:36:04.723Z,733.00
2022-10-13T10:37:05.395Z,805.00
2022-10-13T10:38:03.798Z,905.00
2022-10-13T10:39:03.987Z,1039.00
2022-10-13T10:40:05.284Z,1085.00
2022-10-13T10:41:03.582Z,1126.00
2022-10-13T10:42:03.838Z,1196.00
2022-10-13T10:43:03.556Z,1161.00
2022-10-13T10:44:25.372Z,951.00
2022-10-13T10:45:03.636Z,847.00
2022-10-13T10:46:03.903Z,787.00
2022-10-13T10:47:04.262Z,765.00
2022-10-13T10:48:03.938Z,732.00
2022-10-13T10:49:03.672Z,721.00
2022-10-13T10:50:03.922Z,695.00
2022-10-13T10:51:03.669Z,698.00
2022-10-13T10:52:03.915Z,753.00
2022-10-13T10:53:03.744Z,877.00
2022-10-13T10:54:24.250Z,988.00
2022-10-13T10:55:03.668Z,948.00
2022-10-13T10:56:03.419Z,917.00
2022-10-13T10:57:03.668Z,904.00
2022-10-13T10:58:03.433Z,861.00
2022-10-13T10:59:03.670Z,795.00
2022-10-13T11:00:03.444Z,651.00
2022-10-13T11:01:03.668Z,560.00
2022-10-13T11:02:03.451Z,571.00
2022-10-13T11:03:03.673Z,663.00
2022-10-13T11:04:24.940Z,761.00
2022-10-13T11:05:06.311Z,813.00
2022-10-13T11:06:03.511Z,876.00
2022-10-13T11:07:03.784Z,929.00
2022-10-13T11:08:03.529Z,967.00
2022-10-13T11:09:03.272Z,1010.00
2022-10-13T11:10:03.502Z,1028.00
2022-10-13T11:11:03.754Z,1025.00
2022-10-13T11:12:03.504Z,984.00
2022-10-13T11:13:03.237Z,995.00
2022-10-13T11:14:25.015Z,1066.00
2022-10-13T11:15:04.332Z,1067.00
2022-10-13T11:16:03.684Z,1041.00
2022-10-13T11:17:04.242Z,992.00
2022-10-13T11:18:04.646Z,922.00
2022-10-13T11:19:04.159Z,956.00
2022-10-13T11:20:03.354Z,945.00
2022-10-13T11:21:04.968Z,804.00
2022-10-13T11:22:04.737Z,659.00
2022-10-13T11:23:04.578Z,641.00
2022-10-13T11:24:23.383Z,734.00
2022-10-13T11:25:04.594Z,890.00
2022-10-13T11:26:04.899Z,1173.00
2022-10-13T11:27:04.669Z,1469.00
2022-10-13T11:28:04.205Z,1562.00
2022-10-13T11:29:04.276Z,1502.00
2022-10-13T11:30:04.568Z,1200.00
2022-10-13T11:31:04.871Z,796.00
2022-10-13T11:32:03.271Z,892.00
2022-10-13T11:33:03.637Z,1462.00
2022-10-13T11:34:23.278Z,1886.00
2022-10-13T11:35:03.293Z,1984.00
2022-10-13T11:36:04.823Z,2181.00
2022-10-13T11:37:03.342Z,1905.00
2022-10-13T11:38:07.613Z,1547.00
2022-10-13T11:39:04.263Z,1131.00
2022-10-13T11:40:03.321Z,1016.00
2022-10-13T11:41:04.304Z,1084.00
2022-10-13T11:42:04.100Z,1081.00
2022-10-13T11:43:05.279Z,882.00
2022-10-13T11:44:23.250Z,822.00
2022-10-13T11:45:03.771Z,673.00
2022-10-13T11:46:03.269Z,560.00
2022-10-13T11:47:03.027Z,700.00
2022-10-13T11:48:03.289Z,1049.00
2022-10-13T11:49:03.002Z,1645.00
2022-10-13T11:50:03.268Z,1913.00
2022-10-13T11:51:03.035Z,1637.00
2022-10-13T11:52:03.446Z,1233.00
2022-10-13T11:53:03.039Z,835.00
2022-10-13T11:54:23.297Z,829.00
2022-10-13T11:55:03.031Z,956.00
2022-10-13T11:56:02.794Z,1000.00
2022-10-13T11:57:03.486Z,1046.00
2022-10-13T11:58:02.266Z,1156.00
2022-10-13T11:59:03.012Z,1293.00
2022-10-13T12:00:02.796Z,1205.00
2022-10-13T12:01:02.225Z,1086.00
2022-10-13T12:02:02.984Z,996.00
2022-10-13T12:03:03.257Z,913.00
2022-10-13T12:04:22.994Z,806.00
2022-10-13T12:05:02.728Z,690.00
2022-10-13T12:06:02.956Z,677.00
2022-10-13T12:07:02.786Z,783.00
2022-10-13T12:08:02.969Z,763.00
2022-10-13T12:09:02.730Z,918.00
2022-10-13T12:10:02.961Z,1165.00
2022-10-13T12:11:02.700Z,1235.00
2022-10-13T12:12:02.966Z,1360.00
2022-10-13T12:13:02.697Z,1346.00
2022-10-13T12:14:22.961Z,1324.00
2022-10-13T12:15:06.073Z,1224.00
2022-10-13T12:16:02.942Z,1130.00
2022-10-13T12:17:02.723Z,1175.00
2022-10-13T12:18:02.996Z,1121.00
2022-10-13T12:19:02.753Z,1141.00
2022-10-13T12:20:02.991Z,1222.00
2022-10-13T12:21:02.760Z,1326.00
2022-10-13T12:22:03.012Z,1422.00
2022-10-13T12:23:02.765Z,1395.00
2022-10-13T12:24:23.017Z,1413.00
2022-10-13T12:25:02.745Z,1440.00
2022-10-13T12:26:02.984Z,1396.00
2022-10-13T12:27:02.746Z,1435.00
2022-10-13T12:28:02.486Z,1552.00
2022-10-13T12:29:02.756Z,1647.00
2022-10-13T12:30:02.495Z,1684.00
2022-10-13T12:31:02.747Z,1788.00
2022-10-13T12:32:02.507Z,1849.00
2022-10-13T12:33:02.763Z,1911.00
2022-10-13T12:34:23.477Z,2142.00
2022-10-13T12:35:02.759Z,2314.00
2022-10-13T12:36:02.511Z,2453.00
2022-10-13T12:37:02.810Z,2372.00
2022-10-13T12:38:02.522Z,2524.00
2022-10-13T12:39:02.757Z,2489.00
2022-10-13T12:40:02.538Z,2358.00
2022-10-13T12:41:02.794Z,2273.00
2022-10-13T12:42:02.546Z,2004.00
2022-10-13T12:43:02.284Z,1851.00
2022-10-13T12:44:23.311Z,1699.00
2022-10-13T12:45:02.333Z,1626.00